Time;durP1;ratioP1;P1;durP2;ratioP2;P2;SDS_P1;SDS_P2;PMS_P1;PMS_P2;Temp;Humidity;BMP_temperature;BMP_pressure;BME280_temperature;BME280_humidity;BME280_pressure;Samples;Min_cycle;Max_cycle;Signal;HPM_P1;HPM_P2
2022/07/29 00:01:43;;;;;;;10.30;4.20;;;;;;;12.51;78.42;101078.14;84371;1336;22833;-70
2022/07/29 00:03:52;;;;;;;7.40;4.40;;;;;;;12.52;78.35;101076.38;84352;1336;22664;-70
2022/07/29 00:06:01;;;;;;;6.50;3.80;;;;;;;12.51;78.43;101078.84;84357;1333;24951;-71
2022/07/29 00:08:10;;;;;;;8.20;5.00;;;;;;;12.52;78.60;101081.45;84385;1335;22609;-71
2022/07/29 00:10:19;;;;;;;7.70;4.70;;;;;;;12.54;78.75;101079.27;84389;1336;22609;-71
2022/07/29 00:12:28;;;;;;;8.80;3.60;;;;;;;12.56;78.96;101087.77;84350;1336;25528;-71
2022/07/29 00:14:36;;;;;;;10.90;4.60;;;;;;;12.59;79.15;101090.98;84134;1338;22817;-71
2022/07/29 00:16:45;;;;;;;8.50;4.30;;;;;;;12.63;78.96;101091.38;84387;1334;22620;-70
2022/07/29 00:18:54;;;;;;;9.60;4.30;;;;;;;12.67;79.13;101087.06;84391;1335;23950;-70
2022/07/29 00:21:03;;;;;;;11.10;3.70;;;;;;;12.71;79.43;101082.86;84375;1335;24357;-72
2022/07/29 00:23:13;;;;;;;6.40;4.10;;;;;;;12.76;79.61;101085.83;84417;1336;25454;-71
2022/07/29 00:25:23;;;;;;;7.60;3.60;;;;;;;12.83;79.62;101088.23;84396;1336;22600;-71
2022/07/29 00:27:32;;;;;;;6.00;4.10;;;;;;;12.90;79.73;101087.08;84407;1335;22682;-70
2022/07/29 00:29:41;;;;;;;7.00;4.20;;;;;;;12.95;79.78;101087.09;84409;1335;22859;-69
2022/07/29 00:31:50;;;;;;;7.60;4.00;;;;;;;12.99;79.60;101092.35;84386;1336;22590;-71
2022/07/29 00:33:59;;;;;;;4.20;3.80;;;;;;;13.02;79.69;101094.71;84426;1335;22597;-71
2022/07/29 00:36:08;;;;;;;6.60;4.20;;;;;;;13.03;79.60;101090.98;84383;1335;22625;-71
2022/07/29 00:38:19;;;;;;;6.80;4.00;;;;;;;13.04;79.77;101090.41;84365;1333;22605;-71
2022/07/29 00:40:28;;;;;;;13.80;4.60;;;;;;;13.08;79.89;101089.57;84396;1336;22743;-70
2022/07/29 00:42:45;;;;;;;10.80;5.70;;;;;;;13.12;79.90;101087.31;84378;1335;23991;-71
2022/07/29 00:44:54;;;;;;;6.40;4.70;;;;;;;13.18;80.04;101082.02;84404;1336;23034;-70
2022/07/29 00:47:03;;;;;;;8.50;5.00;;;;;;;13.23;79.98;101079.95;84386;1336;22604;-71
2022/07/29 00:49:12;;;;;;;10.50;4.90;;;;;;;13.27;80.08;101083.30;84419;1335;23046;-70
2022/07/29 00:51:21;;;;;;;8.20;4.90;;;;;;;13.30;79.95;101077.23;84375;1336;22632;-71
2022/07/29 00:53:30;;;;;;;7.10;4.70;;;;;;;13.33;79.86;101079.39;84402;1335;22609;-70
2022/07/29 00:55:39;;;;;;;5.10;4.00;;;;;;;13.35;79.99;101074.03;84390;1336;22784;-71
2022/07/29 00:57:48;;;;;;;4.50;3.70;;;;;;;13.41;80.21;101076.27;84367;1338;25437;-71
2022/07/29 00:59:57;;;;;;;6.90;3.50;;;;;;;13.47;80.32;101077.13;84397;1335;23775;-71
2022/07/29 01:02:06;;;;;;;5.30;3.30;;;;;;;13.50;80.06;101080.66;84396;1335;22659;-72
2022/07/29 01:04:15;;;;;;;6.00;3.30;;;;;;;13.54;80.22;101081.38;84417;1335;22609;-72
2022/07/29 01:06:24;;;;;;;9.60;3.70;;;;;;;13.59;80.21;101078.21;84320;1333;22606;-72
2022/07/29 01:08:33;;;;;;;7.20;3.50;;;;;;;13.63;79.82;101074.55;84416;1333;22602;-72
2022/07/29 01:10:42;;;;;;;8.50;3.60;;;;;;;13.66;79.76;101075.84;84379;1333;24286;-70
2022/07/29 01:12:53;;;;;;;6.10;3.60;;;;;;;13.71;80.20;101076.70;84407;1336;22652;-72
2022/07/29 01:15:02;;;;;;;5.10;3.10;;;;;;;13.75;79.89;101078.47;84430;1336;22622;-71
2022/07/29 01:17:13;;;;;;;8.20;3.30;;;;;;;13.78;79.77;101078.49;84398;1336;22677;-71
2022/07/29 01:19:41;;;;;;;8.90;3.40;;;;;;;13.81;79.53;101078.39;84406;1336;22620;-72
2022/07/29 01:21:54;;;;;;;9.40;3.70;;;;;;;13.83;79.64;101079.16;84412;1335;22636;-71
2022/07/29 01:24:31;;;;;;;5.20;3.00;;;;;;;13.86;79.48;101078.35;84424;1336;22618;-72
2022/07/29 01:26:53;;;;;;;4.20;2.90;;;;;;;13.87;79.27;101077.60;84401;1335;22618;-71
2022/07/29 01:29:10;;;;;;;6.80;3.40;;;;;;;13.88;79.20;101075.79;84389;1335;24261;-69
2022/07/29 01:31:23;;;;;;;9.70;4.30;;;;;;;13.89;79.24;101078.23;84353;1336;22597;-70
2022/07/29 01:33:52;;;;;;;5.90;2.30;;;;;;;13.89;79.53;101080.52;84403;1333;22621;-72
2022/07/29 01:36:01;;;;;;;3.80;2.80;;;;;;;13.90;79.32;101082.92;84385;1335;22612;-71
2022/07/29 01:38:16;;;;;;;8.00;3.30;;;;;;;13.91;79.20;101078.33;84406;1336;24254;-71
2022/07/29 01:40:31;;;;;;;4.00;3.40;;;;;;;13.91;79.30;101078.18;84408;1336;25391;-71
2022/07/29 01:42:45;;;;;;;7.20;2.70;;;;;;;13.90;79.17;101081.01;84365;1336;26514;-71
2022/07/29 01:44:57;;;;;;;8.40;3.10;;;;;;;13.90;79.11;101084.00;84355;1336;22612;-72
2022/07/29 01:47:13;;;;;;;5.10;3.10;;;;;;;13.90;78.97;101080.84;84388;1335;22716;-71
2022/07/29 01:49:25;;;;;;;4.70;2.80;;;;;;;13.88;78.74;101083.00;84388;1338;22585;-72
2022/07/29 01:51:39;;;;;;;6.40;2.70;;;;;;;13.87;78.64;101086.40;84395;1336;25500;-70
2022/07/29 01:53:51;;;;;;;3.80;2.80;;;;;;;13.84;78.56;101087.89;84370;1333;23051;-70
2022/07/29 01:56:00;;;;;;;4.60;2.80;;;;;;;13.82;78.61;101087.12;84385;1335;25442;-70
2022/07/29 01:58:10;;;;;;;6.20;3.10;;;;;;;13.80;78.64;101080.90;84370;1336;23802;-69
2022/07/29 02:00:22;;;;;;;4.60;3.10;;;;;;;13.76;78.70;101083.83;84311;1338;25326;-72
2022/07/29 02:02:31;;;;;;;6.30;2.60;;;;;;;13.74;78.71;101080.59;84319;1338;22648;-72
2022/07/29 02:04:41;;;;;;;11.40;3.00;;;;;;;13.75;78.75;101086.36;84288;1336;22622;-70
2022/07/29 02:06:51;;;;;;;5.00;2.30;;;;;;;13.73;78.88;101083.98;84133;1338;24949;-71
2022/07/29 02:08:58;;;;;;;;;;;;;;;13.71;79.05;101083.88;84264;1338;22634;-71
2022/07/29 02:11:07;;;;;;;3.40;3.00;;;;;;;13.68;79.16;101084.33;84216;1333;22954;-71
2022/07/29 02:13:17;;;;;;;4.00;2.60;;;;;;;13.68;79.07;101081.88;84207;1339;23951;-71
2022/07/29 02:15:26;;;;;;;5.20;2.60;;;;;;;13.67;79.09;101084.88;84186;1337;22965;-70
2022/07/29 02:17:40;;;;;;;3.60;2.80;;;;;;;13.67;79.02;101086.80;84220;1333;22599;-70
2022/07/29 02:19:49;;;;;;;3.90;2.70;;;;;;;13.67;79.57;101083.34;84218;1334;22606;-70
2022/07/29 02:21:58;;;;;;;4.70;2.90;;;;;;;13.66;79.46;101080.53;84207;1337;22959;-70
2022/07/29 02:24:07;;;;;;;11.20;2.80;;;;;;;13.66;79.44;101080.54;84214;1337;22828;-69
2022/07/29 02:26:16;;;;;;;5.50;3.10;;;;;;;13.66;79.74;101074.95;84220;1338;24381;-69
2022/07/29 02:28:25;;;;;;;7.30;2.70;;;;;;;13.66;79.58;101074.26;84207;1338;22622;-70
2022/07/29 02:30:33;;;;;;;5.70;2.90;;;;;;;13.66;79.49;101076.89;84213;1337;22888;-71
2022/07/29 02:32:43;;;;;;;3.50;2.40;;;;;;;13.65;79.60;101077.77;84207;1337;22760;-71
2022/07/29 02:34:51;;;;;;;6.30;2.40;;;;;;;13.65;79.59;101078.33;84201;1338;22797;-70
2022/07/29 02:37:00;;;;;;;4.30;2.70;;;;;;;13.66;79.61;101079.69;84229;1338;22898;-72
2022/07/29 02:39:10;;;;;;;5.80;2.70;;;;;;;13.66;79.54;101078.80;84200;1329;22688;-71
2022/07/29 02:41:22;;;;;;;5.40;3.00;;;;;;;13.66;79.61;101076.17;84212;1337;22631;-70
2022/07/29 02:43:31;;;;;;;7.20;3.30;;;;;;;13.66;79.56;101079.33;84191;1339;22603;-70
2022/07/29 02:45:40;;;;;;;4.00;2.70;;;;;;;13.66;79.69;101079.14;84207;1338;22559;-70
2022/07/29 02:47:51;;;;;;;4.90;2.30;;;;;;;13.66;79.78;101080.55;84206;1337;22596;-70
2022/07/29 02:50:03;;;;;;;3.90;2.70;;;;;;;13.65;79.67;101080.60;84233;1338;25494;-72
2022/07/29 02:52:17;;;;;;;5.80;3.10;;;;;;;13.64;79.64;101075.19;84237;1334;23175;-71
2022/07/29 02:54:30;;;;;;;4.90;2.60;;;;;;;13.65;79.59;101079.20;84196;1337;22758;-71
2022/07/29 02:56:39;;;;;;;6.60;2.50;;;;;;;13.65;79.71;101084.12;84216;1338;22782;-71
2022/07/29 02:58:50;;;;;;;3.60;2.60;;;;;;;13.64;79.66;101084.69;84214;1338;22601;-72
2022/07/29 03:01:01;;;;;;;4.30;2.50;;;;;;;13.62;79.63;101087.55;84215;1334;25305;-71
2022/07/29 03:03:10;;;;;;;;;;;;;;;13.61;79.58;101084.61;84226;1334;25434;-71
2022/07/29 03:05:21;;;;;;;6.10;2.50;;;;;;;13.56;79.76;101085.67;84213;1338;22737;-70
2022/07/29 03:07:30;;;;;;;3.70;2.10;;;;;;;13.56;79.94;101082.17;84280;1337;22614;-72
2022/07/29 03:09:39;;;;;;;3.80;2.80;;;;;;;13.57;80.03;101083.23;84209;1338;22866;-71
2022/07/29 03:11:48;;;;;;;3.90;2.60;;;;;;;13.57;80.01;101083.20;84182;1338;26646;-70
2022/07/29 03:13:57;;;;;;;7.70;2.60;;;;;;;13.58;80.05;101081.40;84302;1337;23976;-70
2022/07/29 03:16:06;;;;;;;4.10;2.70;;;;;;;13.59;80.05;101083.29;84291;1337;24215;-70
2022/07/29 03:18:15;;;;;;;6.00;2.60;;;;;;;13.61;80.09;101088.66;84289;1336;23037;-69
2022/07/29 03:20:27;;;;;;;4.70;2.70;;;;;;;13.61;80.21;101090.59;84299;1338;22632;-71
2022/07/29 03:22:36;;;;;;;4.00;2.90;;;;;;;13.63;80.38;101094.02;84274;1337;22615;-71
2022/07/29 03:24:45;;;;;;;6.30;2.40;;;;;;;13.64;80.28;101096.06;84298;1328;22682;-69
2022/07/29 03:26:54;;;;;;;5.40;2.50;;;;;;;13.66;80.31;101095.47;84297;1337;22633;-69
2022/07/29 03:29:03;;;;;;;2.50;2.10;;;;;;;13.68;80.34;101096.24;84307;1337;22595;-71
2022/07/29 03:31:12;;;;;;;4.80;2.60;;;;;;;13.70;80.33;101098.82;84299;1335;22606;-72
2022/07/29 03:33:21;;;;;;;7.80;3.00;;;;;;;13.71;80.34;101096.14;84294;1338;23096;-71
2022/07/29 03:35:31;;;;;;;5.00;2.40;;;;;;;13.74;80.39;101095.15;84286;1337;25372;-72
2022/07/29 03:37:40;;;;;;;5.00;2.80;;;;;;;13.78;80.52;101093.42;84315;1338;22629;-72
2022/07/29 03:39:48;;;;;;;4.10;2.50;;;;;;;13.81;80.56;101093.30;84194;1338;22651;-72
2022/07/29 03:41:58;;;;;;;3.30;2.60;;;;;;;13.86;80.64;101090.83;84292;1337;22597;-70
2022/07/29 03:44:07;;;;;;;3.10;2.40;;;;;;;13.91;80.71;101092.34;84109;1338;260308;-71
2022/07/29 03:46:15;;;;;;;3.90;2.70;;;;;;;13.99;80.78;101084.33;84292;1339;22626;-72
2022/07/29 03:48:25;;;;;;;6.00;2.40;;;;;;;14.13;80.94;101084.45;84298;1337;22819;-72
2022/07/29 03:50:34;;;;;;;2.90;2.20;;;;;;;14.54;80.78;101080.27;84304;1336;22701;-72
2022/07/29 03:52:42;;;;;;;4.00;2.50;;;;;;;15.36;81.86;101085.39;84279;1338;26953;-70
2022/07/29 03:54:50;;;;;;;5.80;2.10;;;;;;;16.32;82.45;101082.88;84305;1337;22651;-71
2022/07/29 03:56:59;;;;;;;3.10;2.20;;;;;;;17.32;81.88;101080.09;84267;1337;22668;-72
2022/07/29 03:59:09;;;;;;;4.70;2.30;;;;;;;18.28;79.20;101080.50;84301;1333;22839;-71
2022/07/29 04:01:18;;;;;;;3.90;2.10;;;;;;;19.12;76.72;101082.11;84293;1336;26174;-69
2022/07/29 04:03:27;;;;;;;4.90;2.40;;;;;;;19.90;72.47;101086.05;84292;1334;22659;-70
2022/07/29 04:05:37;;;;;;;2.20;1.80;;;;;;;20.58;69.61;101085.38;84207;1338;22602;-71
2022/07/29 04:07:48;;;;;;;2.80;2.10;;;;;;;21.18;67.44;101081.38;84202;1334;24228;-71
2022/07/29 04:09:57;;;;;;;3.60;1.50;;;;;;;21.90;66.17;101079.52;84213;1337;22854;-69
2022/07/29 04:12:07;;;;;;;6.70;2.30;;;;;;;22.59;62.45;101076.27;84187;1337;22630;-70
2022/07/29 04:14:16;;;;;;;3.90;2.20;;;;;;;23.17;60.88;101077.64;84243;1338;22599;-70
2022/07/29 04:16:25;;;;;;;14.70;2.30;;;;;;;23.79;58.39;101077.30;84233;1338;22548;-72
2022/07/29 04:18:34;;;;;;;3.70;2.80;;;;;;;24.14;55.36;101073.27;84245;1337;22581;-70
2022/07/29 04:20:43;;;;;;;2.50;1.80;;;;;;;24.01;54.16;101078.29;84216;1337;24157;-70
2022/07/29 04:22:52;;;;;;;4.30;1.60;;;;;;;23.55;54.07;101080.30;84243;1338;22609;-70
2022/07/29 04:25:02;;;;;;;4.00;1.70;;;;;;;22.99;54.15;101086.71;84217;1339;25580;-72
2022/07/29 04:27:10;;;;;;;3.20;1.70;;;;;;;22.37;53.94;101083.45;84241;1337;22743;-72
2022/07/29 04:29:20;;;;;;;4.90;1.80;;;;;;;21.75;54.88;101083.09;84235;1338;22619;-72
2022/07/29 04:31:28;;;;;;;1.90;1.50;;;;;;;21.22;55.74;101084.51;84225;1337;24881;-70
2022/07/29 04:33:37;;;;;;;4.40;2.10;;;;;;;20.82;56.54;101086.91;84219;1341;22597;-70
2022/07/29 04:35:46;;;;;;;2.70;1.40;;;;;;;20.48;57.22;101087.46;84215;1337;23935;-70
2022/07/29 04:37:55;;;;;;;4.00;1.90;;;;;;;20.21;57.87;101092.49;84217;1337;22616;-70
2022/07/29 04:40:05;;;;;;;4.70;2.00;;;;;;;19.99;58.71;101089.83;84246;1337;22692;-72
2022/07/29 04:42:14;;;;;;;3.80;2.10;;;;;;;19.80;59.24;101088.80;84225;1338;23053;-72
2022/07/29 04:44:23;;;;;;;6.40;1.90;;;;;;;19.59;59.74;101092.29;84176;1338;22700;-72
2022/07/29 04:46:32;;;;;;;2.30;1.60;;;;;;;19.42;60.38;101092.45;84206;1337;23808;-70
2022/07/29 04:48:41;;;;;;;5.90;1.60;;;;;;;19.27;61.16;101090.77;84220;1337;22586;-71
2022/07/29 04:50:50;;;;;;;6.40;1.80;;;;;;;19.13;61.37;101091.27;84232;1338;22640;-71
2022/07/29 04:52:59;;;;;;;8.20;2.20;;;;;;;19.09;61.85;101094.72;84208;1337;21890;-71
2022/07/29 04:55:10;;;;;;;5.80;2.00;;;;;;;19.35;62.11;101097.67;84225;1339;22669;-72
2022/07/29 04:57:19;;;;;;;5.30;1.60;;;;;;;19.95;61.82;101097.02;84234;1339;22596;-73
2022/07/29 04:59:28;;;;;;;3.80;1.70;;;;;;;20.75;61.23;101095.89;84176;1338;22604;-73
2022/07/29 05:01:37;;;;;;;8.90;2.00;;;;;;;21.70;59.94;101090.39;84214;1338;22602;-73
2022/07/29 05:03:46;;;;;;;25.80;3.20;;;;;;;22.63;58.01;101095.01;84267;1337;22721;-73
2022/07/29 05:05:55;;;;;;;6.80;1.90;;;;;;;23.62;56.90;101088.77;84234;1337;22620;-73
2022/07/29 05:08:03;;;;;;;4.30;1.60;;;;;;;24.73;54.77;101082.42;84197;1339;22605;-72
2022/07/29 05:10:13;;;;;;;2.20;1.40;;;;;;;25.75;51.98;101085.27;84318;1334;22570;-72
2022/07/29 05:12:22;;;;;;;10.40;1.60;;;;;;;26.60;49.13;101083.39;84290;1337;24286;-73
2022/07/29 05:14:31;;;;;;;5.30;1.80;;;;;;;27.29;47.13;101089.34;84315;1338;26470;-69
2022/07/29 05:16:40;;;;;;;5.00;1.70;;;;;;;27.94;45.00;101086.92;84308;1337;22598;-69
2022/07/29 05:18:49;;;;;;;2.40;1.30;;;;;;;28.54;43.16;101087.25;84296;1338;22702;-71
2022/07/29 05:20:58;;;;;;;8.30;1.80;;;;;;;28.95;41.62;101088.77;84293;1337;24286;-71
2022/07/29 05:23:07;;;;;;;3.30;1.30;;;;;;;29.27;41.71;101091.18;84289;1332;22598;-72
2022/07/29 05:25:16;;;;;;;4.20;1.20;;;;;;;29.76;40.21;101087.63;84294;1337;24251;-72
2022/07/29 05:27:25;;;;;;;3.10;1.40;;;;;;;30.09;39.33;101088.63;84188;1336;22820;-70
2022/07/29 05:29:34;;;;;;;2.20;1.00;;;;;;;30.41;38.57;101090.39;84204;1339;22586;-69
2022/07/29 05:31:44;;;;;;;4.40;1.30;;;;;;;30.71;37.24;101086.98;84269;1335;25339;-70
2022/07/29 05:33:52;;;;;;;7.10;1.20;;;;;;;30.88;36.70;101085.67;84177;1338;24960;-70
2022/07/29 05:36:02;;;;;;;3.00;1.00;;;;;;;31.03;35.72;101090.99;84265;1336;22588;-70
2022/07/29 05:38:11;;;;;;;4.70;1.00;;;;;;;31.22;35.90;101093.70;84295;1339;25314;-70
2022/07/29 05:40:20;;;;;;;1.80;1.00;;;;;;;31.62;35.34;101095.58;84318;1337;22601;-69
2022/07/29 05:42:30;;;;;;;2.30;1.10;;;;;;;31.69;34.55;101093.15;84303;1338;22616;-69
2022/07/29 05:44:41;;;;;;;4.30;0.90;;;;;;;31.60;33.93;101097.21;84285;1337;22584;-69
2022/07/29 05:46:50;;;;;;;2.10;0.90;;;;;;;31.48;34.00;101096.64;84275;1337;22762;-69
2022/07/29 05:48:59;;;;;;;2.10;1.00;;;;;;;31.61;34.03;101092.95;84267;1336;22620;-71
2022/07/29 05:51:08;;;;;;;3.10;1.20;;;;;;;31.72;33.34;101087.88;84279;1339;23085;-71
2022/07/29 05:53:18;;;;;;;4.70;1.00;;;;;;;31.94;33.55;101081.91;84282;1337;22828;-72
2022/07/29 05:55:27;;;;;;;4.20;1.10;;;;;;;32.23;32.53;101082.86;84316;1338;22586;-71
2022/07/29 05:57:36;;;;;;;1.70;0.80;;;;;;;32.32;32.61;101080.82;84293;1336;22603;-72
2022/07/29 05:59:45;;;;;;;1.70;0.90;;;;;;;32.65;32.30;101081.20;84299;1337;26064;-71
2022/07/29 06:01:54;;;;;;;3.70;1.50;;;;;;;33.02;31.21;101077.91;84309;1337;22676;-72
2022/07/29 06:04:02;;;;;;;1.60;0.80;;;;;;;33.21;31.03;101079.42;84285;1336;22619;-71
2022/07/29 06:06:11;;;;;;;5.90;0.80;;;;;;;33.42;30.48;101076.69;84298;1337;22601;-70
2022/07/29 06:08:20;;;;;;;3.40;0.70;;;;;;;33.78;30.03;101077.92;84335;1337;24314;-72
2022/07/29 06:10:29;;;;;;;6.20;0.70;;;;;;;34.12;29.38;101081.70;84278;1336;22758;-70
2022/07/29 06:12:38;;;;;;;4.70;1.20;;;;;;;34.34;28.97;101077.41;84294;1334;22631;-72
2022/07/29 06:14:46;;;;;;;;;;;;;;;34.52;28.27;101075.34;84307;1338;22587;-71
2022/07/29 06:16:54;;;;;;;1.40;0.70;;;;;;;34.60;27.96;101076.77;84283;1338;22617;-73
2022/07/29 06:19:02;;;;;;;;;;;;;;;34.70;27.90;101076.08;84291;1338;22591;-71
2022/07/29 06:21:13;;;;;;;1.70;0.70;;;;;;;34.90;27.79;101074.50;84293;1337;24386;-72
2022/07/29 06:23:22;;;;;;;4.80;0.70;;;;;;;35.34;26.88;101079.81;84286;1338;22648;-71
2022/07/29 06:25:30;;;;;;;5.80;0.70;;;;;;;35.46;26.14;101076.23;84283;1338;22590;-71
2022/07/29 06:27:38;;;;;;;5.70;1.10;;;;;;;35.47;26.27;101074.82;84298;1333;22625;-71
2022/07/29 06:29:47;;;;;;;2.60;0.70;;;;;;;35.61;25.79;101075.66;84316;1335;22613;-72
2022/07/29 06:31:56;;;;;;;1.20;0.60;;;;;;;35.57;25.82;101075.49;84275;1337;25434;-70
2022/07/29 06:34:04;;;;;;;1.70;0.90;;;;;;;35.65;25.82;101071.35;84292;1337;22611;-70
2022/07/29 06:36:13;;;;;;;5.10;1.00;;;;;;;35.72;25.98;101066.80;84290;1334;24309;-73
2022/07/29 06:38:24;;;;;;;6.70;0.70;;;;;;;35.78;25.66;101072.64;84295;1337;22615;-71
2022/07/29 06:43:02;;;;;;;1.40;0.80;;;;;;;36.20;24.76;101075.55;84301;1338;22602;-70
2022/07/29 06:45:13;;;;;;;3.00;1.10;;;;;;;36.20;24.58;101076.64;84316;1336;22599;-71
2022/07/29 06:47:22;;;;;;;0.90;0.70;;;;;;;36.26;24.61;101080.45;84318;1337;22629;-70
2022/07/29 06:49:31;;;;;;;2.50;0.70;;;;;;;36.37;24.38;101075.55;84313;1337;22604;-70
2022/07/29 06:51:38;;;;;;;;;;;;;;;36.61;24.12;101069.50;84326;1338;22679;-72
2022/07/29 06:53:47;;;;;;;1.70;1.50;;;;;;;36.45;23.55;101075.36;84268;1338;24020;-71
2022/07/29 06:55:57;;;;;;;5.80;1.00;;;;;;;36.26;23.91;101078.58;84292;1337;22610;-70
2022/07/29 06:58:07;;;;;;;1.60;0.70;;;;;;;36.26;24.01;101077.02;84303;1338;23721;-71
2022/07/29 07:00:20;;;;;;;0.90;0.60;;;;;;;36.47;23.86;101072.75;84284;1339;22717;-71
2022/07/29 07:02:29;;;;;;;4.80;0.70;;;;;;;36.79;23.74;101075.47;84183;1338;22768;-70
2022/07/29 07:04:36;;;;;;;;;;;;;;;36.96;22.81;101075.86;84312;1337;22588;-71
2022/07/29 07:06:45;;;;;;;2.10;1.30;;;;;;;36.60;23.61;101071.27;84276;1337;22634;-72
2022/07/29 07:08:52;;;;;;;;;;;;;;;36.61;23.68;101070.10;84303;1336;22638;-70
2022/07/29 07:11:01;;;;;;;3.40;0.70;;;;;;;36.45;23.86;101067.55;84257;1337;24292;-73
2022/07/29 07:13:10;;;;;;;5.00;0.80;;;;;;;36.30;24.14;101070.90;84298;1337;22659;-72
2022/07/29 07:15:21;;;;;;;4.40;1.20;;;;;;;36.45;23.96;101072.25;84279;1339;26519;-73
2022/07/29 07:17:30;;;;;;;3.80;0.80;;;;;;;36.79;23.35;101072.66;84256;1339;23980;-71
2022/07/29 07:19:37;;;;;;;;;;;;;;;36.97;22.86;101069.27;84304;1336;22865;-72
2022/07/29 07:21:46;;;;;;;5.80;0.90;;;;;;;36.75;23.05;101071.88;84284;1334;23009;-72
2022/07/29 07:23:55;;;;;;;1.40;0.80;;;;;;;36.75;23.17;101070.10;84300;1334;22698;-71
2022/07/29 07:26:02;;;;;;;;;;;;;;;36.88;22.81;101070.04;84296;1333;22734;-72
2022/07/29 07:28:12;;;;;;;1.50;0.80;;;;;;;36.92;22.55;101067.70;84292;1330;22607;-73
2022/07/29 07:30:21;;;;;;;2.60;1.60;;;;;;;36.93;23.06;101068.70;84314;1337;22597;-69
2022/07/29 07:32:28;;;;;;;;;;;;;;;36.94;23.00;101070.92;84295;1338;24146;-70
2022/07/29 07:34:37;;;;;;;5.80;1.20;;;;;;;36.81;23.17;101073.48;84278;1339;22622;-70
2022/07/29 07:36:46;;;;;;;4.70;1.00;;;;;;;36.75;23.19;101069.27;84307;1338;22634;-70
2022/07/29 07:38:55;;;;;;;11.70;1.30;;;;;;;36.84;23.11;101070.51;84255;1337;22627;-71
2022/07/29 07:41:02;;;;;;;;;;;;;;;36.91;23.10;101067.48;84331;1339;25437;-71
2022/07/29 07:43:13;;;;;;;2.60;1.50;;;;;;;36.87;23.19;101067.89;84275;1338;24000;-71
2022/07/29 07:45:32;;;;;;;2.60;1.00;;;;;;;36.83;23.31;101073.07;84320;1337;24420;-71
2022/07/29 07:47:42;;;;;;;2.80;0.80;;;;;;;37.12;22.96;101068.20;84334;1337;25350;-72
2022/07/29 07:49:51;;;;;;;2.70;0.90;;;;;;;37.49;22.99;101070.88;84268;1332;22596;-73
2022/07/29 07:52:03;;;;;;;3.90;0.90;;;;;;;37.77;22.40;101070.41;84289;1337;22959;-72
2022/07/29 07:54:12;;;;;;;1.30;0.90;;;;;;;37.96;22.40;101071.35;84317;1338;22601;-71
2022/07/29 07:56:21;;;;;;;3.50;0.90;;;;;;;37.81;22.36;101071.31;84297;1338;25529;-71
2022/07/29 07:58:30;;;;;;;2.30;1.00;;;;;;;37.80;22.63;101073.09;84273;1337;22848;-71
2022/07/29 08:00:39;;;;;;;2.00;1.00;;;;;;;37.88;22.15;101071.08;84175;1338;26621;-72
2022/07/29 08:02:49;;;;;;;2.80;1.10;;;;;;;38.02;22.28;101070.62;84302;1337;22600;-72
2022/07/29 08:04:59;;;;;;;1.80;1.00;;;;;;;38.31;22.06;101075.38;84272;1333;22617;-71
2022/07/29 08:07:08;;;;;;;2.30;1.10;;;;;;;38.51;21.38;101075.44;84175;1342;22598;-70
2022/07/29 08:09:17;;;;;;;1.70;1.00;;;;;;;38.62;21.64;101077.13;84150;1338;22618;-71
2022/07/29 08:11:24;;;;;;;;;;;;;;;38.90;21.44;101076.57;84173;1338;22577;-73
2022/07/29 08:13:33;;;;;;;2.20;1.00;;;;;;;39.00;21.16;101072.48;84164;1338;24698;-73
2022/07/29 08:15:44;;;;;;;4.70;1.10;;;;;;;39.15;20.99;101070.27;84152;1338;24002;-74
2022/07/29 08:17:53;;;;;;;3.80;1.30;;;;;;;39.18;20.59;101073.13;84166;1338;22853;-74
2022/07/29 08:20:02;;;;;;;2.30;1.20;;;;;;;39.08;20.37;101068.06;84164;1342;22631;-74
2022/07/29 08:22:11;;;;;;;9.60;4.70;;;;;;;38.90;21.12;101068.02;84166;1336;22975;-72
2022/07/29 08:26:46;;;;;;;6.60;1.60;;;;;;;38.83;20.21;101061.31;84124;1339;24203;-74
2022/07/29 08:28:55;;;;;;;6.70;1.20;;;;;;;38.64;20.96;101059.27;84129;1338;22617;-74
2022/07/29 08:31:03;;;;;;;4.10;1.10;;;;;;;38.89;20.75;101065.42;84146;1340;22655;-74
2022/07/29 08:33:13;;;;;;;2.40;0.90;;;;;;;38.98;19.98;101064.17;84161;1334;22681;-74
2022/07/29 08:35:22;;;;;;;3.30;1.40;;;;;;;38.69;20.05;101055.45;84112;1338;24131;-72
2022/07/29 08:37:32;;;;;;;4.80;2.10;;;;;;;38.28;20.28;101058.02;84136;1338;25507;-74
2022/07/29 08:39:41;;;;;;;7.80;1.60;;;;;;;37.92;20.76;101059.89;84126;1338;22714;-73
2022/07/29 08:41:50;;;;;;;3.70;0.90;;;;;;;38.01;21.11;101062.39;84135;1338;22609;-73
2022/07/29 08:43:59;;;;;;;1.30;0.80;;;;;;;38.34;21.26;101065.13;84129;1338;22623;-74
2022/07/29 08:46:08;;;;;;;3.30;1.00;;;;;;;38.57;20.87;101063.92;84126;1338;22667;-74
2022/07/29 08:48:20;;;;;;;3.60;0.90;;;;;;;38.77;20.71;101071.10;84135;1338;24349;-75
2022/07/29 08:50:29;;;;;;;5.00;1.10;;;;;;;39.06;20.28;101072.83;84129;1338;22879;-72
2022/07/29 08:52:40;;;;;;;4.60;1.00;;;;;;;39.25;20.17;101075.59;84114;1338;26494;-74
2022/07/29 08:54:49;;;;;;;2.50;0.60;;;;;;;39.09;20.06;101076.38;84149;1338;22810;-73
2022/07/29 08:56:58;;;;;;;2.70;0.70;;;;;;;38.95;19.82;101072.25;84138;1338;25405;-73
2022/07/29 08:59:08;;;;;;;1.90;1.00;;;;;;;39.05;19.97;101076.73;84132;1340;22624;-73
2022/07/29 09:01:22;;;;;;;3.50;1.10;;;;;;;39.19;19.82;101072.48;84153;1342;22727;-73
2022/07/29 09:03:35;;;;;;;2.60;0.90;;;;;;;38.99;19.55;101067.78;84086;1341;23992;-73
2022/07/29 09:05:45;;;;;;;4.20;0.70;;;;;;;38.70;20.19;101060.56;84209;1338;22643;-74
2022/07/29 09:07:54;;;;;;;1.30;0.90;;;;;;;38.30;20.08;101059.63;84223;1338;22945;-71
2022/07/29 09:10:07;;;;;;;3.70;0.90;;;;;;;37.55;20.53;101057.23;84314;1338;23996;-73
2022/07/29 09:12:16;;;;;;;2.30;0.70;;;;;;;37.15;20.62;101056.19;84306;1338;22741;-72
2022/07/29 09:14:25;;;;;;;3.20;0.90;;;;;;;36.97;20.99;101052.48;84298;1337;25960;-72
2022/07/29 09:17:10;;;;;;;4.30;0.90;;;;;;;36.84;21.27;101051.03;84333;1340;22599;-73
2022/07/29 09:19:58;;;;;;;2.70;0.70;;;;;;;36.82;20.83;101044.63;84190;1338;22630;-71
2022/07/29 09:23:04;;;;;;;4.20;0.80;;;;;;;36.34;21.37;101049.98;84193;1340;22613;-71
2022/07/29 09:26:16;;;;;;;5.30;1.40;;;;;;;35.41;21.94;101055.14;84205;1337;22600;-71
2022/07/29 09:28:57;;;;;;;4.60;0.90;;;;;;;34.46;22.54;101055.08;84150;1338;22637;-71
2022/07/29 09:32:28;;;;;;;1.80;0.90;;;;;;;33.40;23.53;101048.89;84183;1339;25455;-70
2022/07/29 09:35:29;;;;;;;3.10;1.10;;;;;;;32.63;25.12;101049.34;84135;1338;22630;-72
2022/07/29 09:38:48;;;;;;;1.40;0.80;;;;;;;32.35;26.05;101043.32;84175;1338;22609;-70
2022/07/29 09:41:24;;;;;;;9.10;1.10;;;;;;;32.41;26.23;101044.59;84219;1338;23083;-70
2022/07/29 09:44:05;;;;;;;3.00;0.80;;;;;;;32.48;26.08;101045.58;84125;1337;22618;-70
2022/07/29 09:46:55;;;;;;;4.60;0.80;;;;;;;32.43;26.22;101048.13;84085;1342;22643;-71
2022/07/29 09:50:09;;;;;;;1.50;0.80;;;;;;;32.19;26.14;101039.13;84250;1338;22617;-70
2022/07/29 09:56:26;;;;;;;6.30;0.90;;;;;;;30.58;26.76;101035.48;83918;1342;22645;-71
2022/07/29 09:59:43;;;;;;;1.60;0.80;;;;;;;30.03;28.04;101038.74;84041;1340;22646;-70
2022/07/29 10:02:29;;;;;;;4.10;2.10;;;;;;;29.87;28.98;101037.80;84074;1341;22617;-69
2022/07/29 10:05:09;;;;;;;6.30;1.00;;;;;;;29.51;28.82;101033.38;84109;1343;22592;-72
2022/07/29 10:08:10;;;;;;;2.70;1.00;;;;;;;29.30;28.98;101029.90;84239;1339;22658;-70
2022/07/29 10:11:17;;;;;;;7.10;1.70;;;;;;;29.01;29.94;101029.27;84213;1337;22603;-70
2022/07/29 10:13:53;;;;;;;6.80;2.00;;;;;;;28.98;30.90;101026.34;84214;1339;22617;-70
2022/07/29 10:16:32;;;;;;;3.90;1.20;;;;;;;28.98;31.28;101021.70;84232;1338;22678;-72
2022/07/29 10:19:42;;;;;;;;;;;;;;;;;;;;;
2022/07/29 10:22:43;;;;;;;3.90;1.00;;;;;;;28.73;31.20;101017.65;83929;1341;22620;-70
2022/07/29 10:25:17;;;;;;;5.20;1.20;;;;;;;28.55;31.58;101013.52;84145;1341;22652;-70
2022/07/29 10:27:56;;;;;;;8.70;1.10;;;;;;;28.45;32.05;101013.15;84057;1342;22623;-70
2022/07/29 10:30:26;;;;;;;9.40;1.80;;;;;;;28.37;32.18;101017.27;84063;1341;22593;-71
2022/07/29 10:32:56;;;;;;;3.20;0.90;;;;;;;28.41;32.20;101016.29;84099;1342;23971;-69
2022/07/29 10:35:53;;;;;;;1.30;0.90;;;;;;;28.48;31.92;101010.52;84248;1338;23999;-69